createdAt,value
2019-05-19T00:02:23.196Z,99.90
2019-05-19T00:04:54.772Z,99.90
2019-05-19T00:07:25.372Z,99.90
2019-05-19T00:09:55.855Z,99.90
2019-05-19T00:12:26.796Z,99.90
2019-05-19T00:14:57.339Z,99.90
2019-05-19T00:17:27.868Z,99.90
2019-05-19T00:19:58.344Z,99.90
2019-05-19T00:22:29.703Z,99.90
2019-05-19T00:25:00.585Z,99.90
2019-05-19T00:27:31.059Z,99.90
2019-05-19T00:30:01.634Z,99.90
2019-05-19T00:32:33.108Z,99.90
2019-05-19T00:35:04.593Z,99.90
2019-05-19T00:37:35.141Z,99.90
2019-05-19T00:40:06.217Z,99.90
2019-05-19T00:42:37.050Z,99.90
2019-05-19T00:45:08.256Z,99.90
2019-05-19T00:47:39.044Z,99.90
2019-05-19T00:50:10.968Z,99.90
2019-05-19T00:52:41.860Z,99.90
2019-05-19T00:55:12.686Z,99.90
2019-05-19T00:57:43.488Z,99.90
2019-05-19T01:00:14.315Z,99.90
2019-05-19T01:02:45.264Z,99.90
2019-05-19T01:05:16.200Z,99.90
2019-05-19T01:07:46.692Z,99.90
2019-05-19T01:10:17.287Z,99.90
2019-05-19T01:12:47.879Z,99.90
2019-05-19T01:15:19.031Z,99.90
2019-05-19T01:17:49.499Z,99.90
2019-05-19T01:20:20.400Z,99.90
2019-05-19T01:22:50.874Z,99.90
2019-05-19T01:25:21.437Z,99.90
2019-05-19T01:27:52.287Z,99.90
2019-05-19T01:30:22.989Z,99.90
2019-05-19T01:32:53.464Z,99.90
2019-05-19T01:35:23.936Z,99.90
2019-05-19T01:37:54.434Z,99.90
2019-05-19T01:40:25.025Z,99.90
2019-05-19T01:42:55.526Z,99.90
2019-05-19T01:45:26.500Z,99.90
2019-05-19T01:47:57.123Z,99.90
2019-05-19T01:50:29.603Z,99.90
2019-05-19T01:53:00.608Z,99.90
2019-05-19T01:55:31.082Z,99.90
2019-05-19T01:58:01.536Z,99.90
2019-05-19T02:00:32.048Z,99.90
2019-05-19T02:03:02.694Z,99.90
2019-05-19T02:05:33.206Z,99.90
2019-05-19T02:08:04.180Z,99.90
2019-05-19T02:10:34.671Z,99.90
2019-05-19T02:13:05.414Z,99.90
2019-05-19T02:15:36.927Z,99.90
2019-05-19T02:18:07.984Z,99.90
2019-05-19T02:20:38.501Z,99.90
2019-05-19T02:23:09.071Z,99.90
2019-05-19T02:25:40.387Z,99.90
2019-05-19T02:28:10.893Z,99.90
2019-05-19T02:30:41.393Z,99.90
2019-05-19T02:33:11.877Z,99.90
2019-05-19T02:35:42.409Z,99.90
2019-05-19T02:38:12.929Z,99.90
2019-05-19T02:40:47.633Z,99.90
2019-05-19T02:43:19.175Z,99.90
2019-05-19T02:45:52.384Z,99.90
2019-05-19T02:48:23.750Z,99.90
2019-05-19T02:50:55.955Z,99.90
2019-05-19T02:53:26.847Z,99.90
2019-05-19T02:55:58.273Z,99.90
2019-05-19T02:58:29.087Z,99.90
2019-05-19T03:01:02.659Z,99.90
2019-05-19T03:03:33.177Z,99.90
2019-05-19T03:06:04.039Z,99.90
2019-05-19T03:08:34.933Z,99.90
2019-05-19T03:11:05.439Z,99.90
2019-05-19T03:13:36.165Z,99.90
2019-05-19T03:16:06.655Z,99.90
2019-05-19T03:18:37.152Z,99.90
2019-05-19T03:21:11.110Z,99.90
2019-05-19T03:23:39.736Z,99.90
2019-05-19T03:26:10.205Z,99.90
2019-05-19T03:28:41.125Z,99.90
2019-05-19T03:31:19.622Z,99.90
2019-05-19T03:33:50.613Z,99.90
2019-05-19T03:36:21.124Z,99.90
2019-05-19T03:38:51.592Z,99.90
2019-05-19T03:41:22.058Z,99.90
2019-05-19T03:43:52.575Z,99.90
2019-05-19T03:46:23.054Z,99.90
2019-05-19T03:48:53.939Z,99.90
2019-05-19T03:51:31.059Z,99.90
2019-05-19T03:53:56.926Z,99.90
2019-05-19T03:56:27.822Z,99.90
2019-05-19T03:58:58.320Z,99.90
2019-05-19T04:01:28.811Z,99.90
2019-05-19T04:03:59.312Z,99.90
2019-05-19T04:06:30.597Z,99.90
2019-05-19T04:09:01.446Z,99.90
2019-05-19T04:11:32.213Z,99.90
2019-05-19T04:14:02.674Z,99.90
2019-05-19T04:16:33.193Z,99.90
2019-05-19T04:19:04.066Z,99.90
2019-05-19T04:21:48.137Z,99.90
2019-05-19T04:24:06.653Z,99.90
2019-05-19T04:26:37.183Z,99.90
2019-05-19T04:29:07.730Z,99.90
2019-05-19T04:31:38.258Z,99.90
2019-05-19T04:34:08.766Z,99.90
2019-05-19T04:36:39.251Z,99.90
2019-05-19T04:39:09.822Z,99.90
2019-05-19T04:41:41.621Z,99.90
2019-05-19T04:44:12.139Z,99.90
2019-05-19T04:46:43.054Z,99.90
2019-05-19T04:49:13.582Z,99.90
2019-05-19T04:51:44.418Z,99.90
2019-05-19T04:54:15.296Z,99.90
2019-05-19T04:56:45.750Z,99.90
2019-05-19T04:59:16.995Z,99.90
2019-05-19T05:01:47.489Z,99.90
2019-05-19T05:04:18.512Z,99.90
2019-05-19T05:06:49.078Z,99.90
2019-05-19T05:09:19.614Z,99.90
2019-05-19T05:11:50.197Z,99.90
2019-05-19T05:14:21.126Z,99.90
2019-05-19T05:16:51.705Z,99.90
2019-05-19T05:19:22.197Z,99.90
2019-05-19T05:21:52.776Z,99.90
2019-05-19T05:24:23.741Z,99.90
2019-05-19T05:26:54.315Z,99.90
2019-05-19T05:29:25.669Z,99.90
2019-05-19T05:31:56.202Z,99.90
2019-05-19T05:34:26.691Z,99.90
2019-05-19T05:36:57.188Z,99.90
2019-05-19T05:39:27.707Z,99.90
2019-05-19T05:41:58.204Z,99.90
2019-05-19T05:44:28.726Z,99.90
2019-05-19T05:46:59.682Z,99.90
2019-05-19T05:49:31.130Z,99.90
2019-05-19T05:52:01.649Z,99.90
2019-05-19T05:54:32.189Z,99.90
2019-05-19T05:57:03.457Z,99.90
2019-05-19T05:59:33.942Z,99.90
2019-05-19T06:02:04.593Z,99.90
2019-05-19T06:04:35.065Z,99.90
2019-05-19T06:07:05.964Z,99.90
2019-05-19T06:09:36.464Z,99.90
2019-05-19T06:12:06.980Z,99.90
2019-05-19T06:14:37.880Z,99.90
2019-05-19T06:17:08.420Z,99.90
2019-05-19T06:19:39.681Z,99.90
2019-05-19T06:22:10.606Z,99.90
2019-05-19T06:24:41.074Z,99.90
2019-05-19T06:27:12.337Z,99.90
2019-05-19T06:29:42.910Z,99.90
2019-05-19T06:32:24.124Z,99.90
2019-05-19T06:34:55.154Z,99.90
2019-05-19T06:37:26.893Z,99.90
2019-05-19T06:39:57.465Z,99.90
2019-05-19T06:42:31.310Z,99.90
2019-05-19T06:45:11.302Z,99.90
2019-05-19T07:03:35.138Z,99.90
2019-05-19T07:06:54.732Z,99.90
2019-05-19T07:17:40.628Z,99.90
2019-05-19T07:21:06.007Z,99.90
2019-05-19T07:24:06.153Z,99.90
2019-05-19T07:27:38.363Z,99.90
2019-05-19T07:35:08.591Z,99.90
2019-05-19T07:38:25.725Z,99.90
2019-05-19T07:41:01.150Z,99.90
2019-05-19T07:51:33.265Z,99.90
2019-05-19T07:54:32.787Z,99.90
2019-05-19T08:20:48.180Z,99.90
2019-05-19T08:24:05.895Z,99.90
2019-05-19T08:34:57.178Z,99.90
2019-05-19T08:37:29.648Z,99.90
2019-05-19T08:40:00.633Z,99.90
2019-05-19T08:42:40.339Z,99.90
2019-05-19T08:45:16.799Z,99.90
2019-05-19T09:01:23.481Z,95.60
2019-05-19T09:13:41.941Z,94.20
2019-05-19T09:16:46.041Z,91.90
2019-05-19T09:20:07.337Z,91.50
2019-05-19T09:23:27.090Z,90.30
2019-05-19T09:37:15.731Z,87.90
2019-05-19T09:47:46.352Z,85.30
2019-05-19T10:01:44.421Z,77.90
2019-05-19T10:12:34.968Z,77.70
2019-05-19T10:18:59.880Z,67.20
2019-05-19T10:22:35.103Z,64.60
2019-05-19T10:25:57.184Z,66.10
2019-05-19T10:28:49.819Z,65.80
2019-05-19T10:31:46.407Z,66.30
2019-05-19T10:34:28.488Z,66.60
2019-05-19T11:02:08.607Z,56.60
2019-05-19T11:08:38.868Z,54.20
2019-05-19T11:11:38.057Z,51.70
2019-05-19T11:43:04.069Z,44.90
2019-05-19T11:45:58.523Z,44.50
2019-05-19T11:49:20.041Z,45.50
2019-05-19T11:52:48.246Z,45.70
2019-05-19T11:56:12.444Z,44.80
2019-05-19T12:02:19.261Z,44.90
2019-05-19T12:05:55.565Z,43.50
2019-05-19T12:08:33.197Z,44.10
2019-05-19T12:11:33.976Z,43.60
2019-05-19T12:14:45.097Z,41.90
2019-05-19T12:20:46.413Z,43.90
2019-05-19T12:26:44.831Z,42.50
2019-05-19T12:36:34.744Z,42.20
2019-05-19T12:39:06.647Z,43.20
2019-05-19T12:41:37.277Z,44.30
2019-05-19T12:44:08.748Z,45.30
2019-05-19T12:46:39.613Z,46.40
2019-05-19T12:49:10.314Z,47.50
2019-05-19T12:51:41.298Z,47.90
2019-05-19T12:54:12.726Z,46.10
2019-05-19T12:56:43.587Z,43.10
2019-05-19T12:59:14.667Z,43.60
2019-05-19T13:01:45.653Z,42.50
2019-05-19T13:04:16.953Z,38.80
2019-05-19T13:06:47.965Z,37.00
2019-05-19T13:09:19.228Z,37.40
2019-05-19T13:11:50.199Z,38.60
2019-05-19T13:14:21.090Z,39.30
2019-05-19T13:16:52.059Z,38.60
2019-05-19T13:19:22.722Z,37.20
2019-05-19T13:21:53.275Z,37.20
2019-05-19T13:24:24.294Z,36.60
2019-05-19T13:26:56.910Z,36.70
2019-05-19T13:29:27.280Z,36.40
2019-05-19T13:31:57.754Z,35.70
2019-05-19T13:34:28.322Z,35.20
2019-05-19T13:36:59.228Z,34.90
2019-05-19T13:39:30.194Z,32.90
2019-05-19T13:42:01.115Z,33.60
2019-05-19T13:44:33.315Z,31.90
2019-05-19T13:47:04.520Z,33.10
2019-05-19T13:49:35.159Z,34.40
2019-05-19T13:52:23.232Z,35.20
2019-05-19T14:16:28.569Z,34.70
2019-05-19T14:20:07.023Z,32.90
2019-05-19T14:22:36.045Z,31.50
2019-05-19T14:25:35.694Z,33.20
2019-05-19T14:28:46.929Z,33.40
2019-05-19T14:31:45.151Z,33.70
2019-05-19T14:34:27.195Z,34.20
2019-05-19T14:37:00.227Z,34.60
2019-05-19T14:39:47.416Z,35.40
2019-05-19T14:42:42.334Z,35.90
2019-05-19T14:45:14.033Z,37.10
2019-05-19T14:47:45.270Z,37.60
2019-05-19T14:50:18.169Z,39.10
2019-05-19T14:52:51.430Z,37.40
2019-05-19T14:55:22.666Z,38.30
2019-05-19T14:57:55.303Z,38.90
2019-05-19T15:00:29.004Z,38.70
2019-05-19T15:03:19.517Z,38.20
2019-05-19T15:08:52.344Z,36.20
2019-05-19T15:11:23.201Z,35.50
2019-05-19T15:13:54.309Z,36.50
2019-05-19T15:16:31.741Z,37.00
2019-05-19T15:19:21.117Z,38.20
2019-05-19T15:22:11.388Z,38.50
2019-05-19T15:29:35.323Z,39.20
2019-05-19T15:42:28.912Z,38.70
2019-05-19T15:45:02.985Z,38.70
2019-05-19T15:50:44.557Z,39.50
2019-05-19T15:56:38.911Z,40.80
2019-05-19T15:59:41.121Z,41.30
2019-05-19T16:02:10.122Z,41.80
2019-05-19T16:04:41.636Z,42.70
2019-05-19T16:07:12.450Z,42.80
2019-05-19T16:09:43.326Z,43.00
2019-05-19T16:12:14.422Z,43.40
2019-05-19T16:14:48.642Z,43.80
2019-05-19T16:17:19.576Z,44.00
2019-05-19T16:19:59.903Z,44.30
2019-05-19T16:22:46.343Z,44.70
2019-05-19T16:30:57.193Z,44.40
2019-05-19T16:33:27.783Z,44.50
2019-05-19T16:35:58.504Z,44.50
2019-05-19T16:41:42.975Z,44.60
2019-05-19T16:44:28.546Z,44.70
2019-05-19T16:47:09.204Z,44.80
2019-05-19T16:49:46.448Z,45.00
2019-05-19T16:52:53.306Z,45.00
2019-05-19T16:55:26.947Z,45.20
2019-05-19T16:58:21.190Z,45.10
2019-05-19T17:01:58.730Z,45.20
2019-05-19T17:05:02.287Z,45.40
2019-05-19T17:10:56.572Z,45.50
2019-05-19T17:17:04.483Z,44.60
2019-05-19T17:19:38.932Z,45.40
2019-05-19T17:22:22.852Z,45.60
2019-05-19T17:25:07.518Z,45.50
2019-05-19T17:27:51.883Z,45.50
2019-05-19T17:30:25.061Z,45.40
2019-05-19T17:32:55.704Z,45.80
2019-05-19T17:35:26.317Z,46.70
2019-05-19T17:37:57.626Z,47.20
2019-05-19T17:48:09.750Z,46.90
2019-05-19T17:50:44.655Z,47.70
2019-05-19T17:53:34.871Z,53.20
2019-05-19T17:56:29.937Z,55.70
2019-05-19T17:59:16.116Z,57.00
2019-05-19T18:01:44.731Z,57.90
2019-05-19T18:05:22.559Z,58.90
2019-05-19T18:07:54.359Z,59.70
2019-05-19T18:10:28.433Z,63.00
2019-05-19T18:13:01.697Z,63.70
2019-05-19T18:15:32.687Z,65.00
2019-05-19T18:18:06.350Z,66.40
2019-05-19T18:20:38.286Z,67.90
2019-05-19T18:23:12.457Z,69.10
2019-05-19T18:25:44.558Z,69.60
2019-05-19T18:28:15.605Z,70.80
2019-05-19T18:30:46.712Z,71.10
2019-05-19T18:33:19.189Z,73.00
2019-05-19T18:36:12.342Z,79.60
2019-05-19T18:38:44.682Z,87.70
2019-05-19T18:41:15.507Z,99.90
2019-05-19T18:43:47.207Z,99.90
2019-05-19T18:46:18.154Z,99.90
2019-05-19T18:48:51.160Z,99.90
2019-05-19T18:51:30.406Z,99.90
2019-05-19T18:54:00.860Z,99.90
2019-05-19T18:56:32.170Z,99.90
2019-05-19T18:59:05.096Z,99.90
2019-05-19T19:01:35.634Z,99.90
2019-05-19T19:04:06.908Z,99.90
2019-05-19T19:06:37.705Z,99.90
2019-05-19T19:09:11.153Z,99.90
2019-05-19T19:11:41.665Z,99.90
2019-05-19T19:14:13.582Z,99.90
2019-05-19T19:16:44.381Z,99.90
2019-05-19T19:19:16.858Z,99.90
2019-05-19T19:21:49.071Z,99.90
2019-05-19T19:24:20.340Z,99.90
2019-05-19T19:27:08.131Z,99.90
2019-05-19T19:29:40.964Z,99.90
2019-05-19T19:32:13.538Z,99.90
2019-05-19T19:35:19.685Z,99.90
2019-05-19T19:37:53.160Z,99.90
2019-05-19T19:40:29.960Z,99.90
2019-05-19T19:43:01.201Z,99.90
2019-05-19T19:45:32.656Z,99.90
2019-05-19T19:48:03.743Z,99.90
2019-05-19T19:50:35.004Z,99.90
2019-05-19T19:53:06.156Z,99.90
2019-05-19T19:55:40.214Z,99.90
2019-05-19T20:09:00.640Z,99.90
2019-05-19T20:11:33.141Z,99.90
2019-05-19T20:14:03.825Z,99.90
2019-05-19T20:19:40.287Z,99.90
2019-05-19T20:22:11.125Z,99.90
2019-05-19T20:24:41.691Z,99.90
2019-05-19T20:27:21.885Z,99.90
2019-05-19T20:30:35.176Z,99.90
2019-05-19T20:32:59.296Z,99.90
2019-05-19T20:35:29.848Z,99.90
2019-05-19T20:38:00.513Z,99.90
2019-05-19T20:40:31.503Z,99.90
2019-05-19T20:43:02.075Z,99.90
2019-05-19T20:45:33.269Z,99.90
2019-05-19T20:48:03.977Z,99.90
2019-05-19T20:50:34.724Z,99.90
2019-05-19T20:53:15.524Z,99.90
2019-05-19T20:55:48.649Z,99.90
2019-05-19T20:58:34.062Z,99.90
2019-05-19T21:01:22.864Z,99.90
2019-05-19T21:04:19.596Z,99.90
2019-05-19T21:06:52.176Z,99.90
2019-05-19T21:09:23.153Z,99.90
2019-05-19T21:11:53.683Z,99.90
2019-05-19T21:14:24.296Z,99.90
2019-05-19T21:16:56.100Z,99.90
2019-05-19T21:19:26.705Z,99.90
2019-05-19T21:21:57.575Z,99.90
2019-05-19T21:24:28.173Z,99.90
2019-05-19T21:26:59.263Z,99.90
2019-05-19T21:29:30.191Z,99.90
2019-05-19T21:32:01.091Z,99.90
2019-05-19T21:34:31.948Z,99.90
2019-05-19T21:37:03.006Z,99.90
2019-05-19T21:39:33.649Z,99.90
2019-05-19T21:42:04.140Z,99.90
2019-05-19T21:44:34.652Z,99.90
2019-05-19T21:47:05.574Z,99.90
2019-05-19T21:49:36.217Z,99.90
2019-05-19T21:52:06.742Z,99.90
2019-05-19T21:54:37.241Z,99.90
2019-05-19T21:57:08.196Z,99.90
2019-05-19T21:59:38.876Z,99.90
2019-05-19T22:02:09.457Z,99.90
2019-05-19T22:04:41.039Z,99.90
2019-05-19T22:07:21.096Z,99.90
2019-05-19T22:09:52.000Z,99.90
2019-05-19T22:12:22.514Z,99.90
2019-05-19T22:14:53.055Z,99.90
2019-05-19T22:17:24.042Z,99.90
2019-05-19T22:19:55.168Z,99.90
2019-05-19T22:22:25.671Z,99.90
2019-05-19T22:24:56.279Z,99.90
2019-05-19T22:27:26.860Z,99.90
2019-05-19T22:29:57.739Z,99.90
2019-05-19T22:32:29.013Z,99.90
2019-05-19T22:34:59.860Z,99.90
2019-05-19T22:37:32.079Z,99.90
2019-05-19T22:40:03.016Z,99.90
2019-05-19T22:42:34.722Z,99.90
2019-05-19T22:45:05.364Z,99.90
2019-05-19T22:47:36.887Z,99.90
2019-05-19T22:50:07.752Z,99.90
2019-05-19T22:52:38.355Z,99.90
2019-05-19T22:55:09.044Z,99.90
2019-05-19T22:57:40.885Z,99.90
2019-05-19T23:00:13.062Z,99.90
2019-05-19T23:02:44.607Z,99.90
2019-05-19T23:05:15.827Z,99.90
2019-05-19T23:07:46.325Z,99.90
2019-05-19T23:10:17.348Z,99.90
2019-05-19T23:12:48.184Z,99.90
2019-05-19T23:15:19.461Z,99.90
2019-05-19T23:17:50.433Z,99.90
2019-05-19T23:20:22.263Z,99.90
2019-05-19T23:22:52.861Z,99.90
2019-05-19T23:25:23.324Z,99.90
2019-05-19T23:27:53.870Z,99.90
2019-05-19T23:30:24.721Z,99.90
2019-05-19T23:32:55.267Z,99.90
2019-05-19T23:35:26.119Z,99.90
2019-05-19T23:37:58.379Z,99.90
2019-05-19T23:40:28.976Z,99.90
2019-05-19T23:42:59.487Z,99.90
2019-05-19T23:45:30.001Z,99.90
2019-05-19T23:48:00.512Z,99.90
2019-05-19T23:50:31.030Z,99.90
2019-05-19T23:53:01.494Z,99.90
2019-05-19T23:55:33.079Z,99.90
2019-05-19T23:58:03.868Z,99.90
